createdAt,value
2022-09-15T00:00:11.386Z,9.43
2022-09-15T00:00:33.303Z,8.90
2022-09-15T00:00:55.311Z,9.20
2022-09-15T00:01:18.558Z,8.93
2022-09-15T00:01:43.033Z,9.07
2022-09-15T00:02:05.622Z,9.02
2022-09-15T00:02:27.773Z,9.63
2022-09-15T00:02:51.529Z,9.10
2022-09-15T00:03:13.938Z,9.30
2022-09-15T00:03:35.925Z,8.88
2022-09-15T00:03:57.982Z,9.10
2022-09-15T00:04:20.098Z,9.30
2022-09-15T00:04:41.928Z,9.15
2022-09-15T00:05:05.900Z,9.52
2022-09-15T00:05:28.249Z,9.00
2022-09-15T00:05:52.022Z,8.90
2022-09-15T00:06:20.173Z,8.60
2022-09-15T00:06:42.001Z,9.02
2022-09-15T00:07:06.193Z,8.88
2022-09-15T00:07:28.192Z,8.70
2022-09-15T00:07:50.351Z,9.05
2022-09-15T00:08:15.582Z,9.27
2022-09-15T00:08:38.524Z,8.90
2022-09-15T00:09:04.034Z,8.52
2022-09-15T00:09:26.377Z,9.15
2022-09-15T00:09:48.431Z,9.35
2022-09-15T00:10:11.080Z,9.45
2022-09-15T00:10:40.442Z,9.05
2022-09-15T00:11:14.722Z,9.40
2022-09-15T00:11:41.123Z,9.02
2022-09-15T00:12:03.596Z,9.10
2022-09-15T00:12:26.667Z,8.95
2022-09-15T00:12:48.496Z,8.70
2022-09-15T00:13:12.845Z,9.52
2022-09-15T00:13:36.315Z,9.68
2022-09-15T00:14:01.294Z,9.20
2022-09-15T00:14:24.243Z,9.30
2022-09-15T00:14:50.110Z,9.30
2022-09-15T00:15:14.931Z,9.02
2022-09-15T00:15:36.776Z,9.65
2022-09-15T00:16:04.786Z,9.23
2022-09-15T00:16:31.169Z,8.85
2022-09-15T00:16:53.513Z,9.20
2022-09-15T00:17:15.717Z,9.07
2022-09-15T00:17:37.602Z,9.18
2022-09-15T00:18:03.422Z,8.82
2022-09-15T00:18:25.595Z,9.32
2022-09-15T00:18:53.297Z,9.77
2022-09-15T00:19:15.554Z,9.00
2022-09-15T00:19:38.879Z,9.52
2022-09-15T00:20:00.777Z,9.10
2022-09-15T00:20:22.924Z,9.50
2022-09-15T00:20:50.676Z,9.30
2022-09-15T00:21:18.276Z,9.80
2022-09-15T00:21:41.301Z,9.10
2022-09-15T00:22:03.179Z,9.35
2022-09-15T00:22:26.426Z,9.25
2022-09-15T00:22:48.990Z,9.20
2022-09-15T00:23:13.371Z,9.20
2022-09-15T00:23:36.519Z,9.18
2022-09-15T00:24:01.099Z,9.65
2022-09-15T00:24:23.040Z,9.55
2022-09-15T00:24:45.787Z,9.30
2022-09-15T00:25:09.392Z,9.55
2022-09-15T00:25:31.229Z,9.35
2022-09-15T00:25:54.095Z,9.00
2022-09-15T00:26:20.628Z,9.40
2022-09-15T00:26:42.551Z,9.32
2022-09-15T00:27:04.760Z,9.70
2022-09-15T00:27:26.884Z,9.73
2022-09-15T00:27:49.363Z,9.65
2022-09-15T00:28:13.963Z,9.50
2022-09-15T00:28:40.037Z,9.63
2022-09-15T00:29:02.912Z,9.40
2022-09-15T00:29:27.312Z,9.70
2022-09-15T00:29:49.221Z,9.43
2022-09-15T00:30:12.853Z,9.02
2022-09-15T00:30:34.820Z,9.50
2022-09-15T00:30:57.716Z,9.40
2022-09-15T00:31:22.302Z,9.02
2022-09-15T00:31:44.290Z,9.35
2022-09-15T00:32:06.193Z,9.57
2022-09-15T00:32:29.741Z,9.43
2022-09-15T00:32:51.801Z,8.95
2022-09-15T00:33:15.281Z,9.52
2022-09-15T00:33:37.584Z,9.90
2022-09-15T00:34:05.172Z,9.77
2022-09-15T00:34:27.292Z,9.40
2022-09-15T00:34:51.856Z,9.57
2022-09-15T00:35:13.668Z,9.60
2022-09-15T00:35:41.803Z,9.50
2022-09-15T00:36:07.408Z,9.60
2022-09-15T00:36:29.802Z,9.32
2022-09-15T00:37:23.499Z,8.93
2022-09-15T00:37:50.111Z,9.63
2022-09-15T00:38:13.425Z,9.70
2022-09-15T00:38:40.036Z,9.02
2022-09-15T00:39:02.027Z,9.50
2022-09-15T00:39:57.311Z,9.27
2022-09-15T00:40:56.130Z,9.43
2022-09-15T00:41:23.238Z,8.73
2022-09-15T00:41:45.507Z,9.02
2022-09-15T00:42:07.514Z,9.80
2022-09-15T00:42:31.515Z,8.98
2022-09-15T00:42:56.074Z,9.38
2022-09-15T00:43:44.799Z,9.20
2022-09-15T00:44:36.007Z,9.30
2022-09-15T00:45:03.431Z,9.10
2022-09-15T00:45:32.769Z,9.52
2022-09-15T00:45:54.636Z,9.30
2022-09-15T00:46:18.559Z,8.80
2022-09-15T00:46:43.504Z,9.07
2022-09-15T00:47:19.394Z,9.40
2022-09-15T00:47:45.363Z,9.10
2022-09-15T00:48:13.417Z,9.13
2022-09-15T00:48:37.972Z,9.40
2022-09-15T00:49:08.407Z,8.70
2022-09-15T00:49:34.683Z,9.13
2022-09-15T00:50:07.374Z,9.13
2022-09-15T00:50:32.689Z,8.70
2022-09-15T00:50:58.623Z,8.85
2022-09-15T00:51:29.696Z,9.10
2022-09-15T00:52:08.684Z,9.43
2022-09-15T00:52:48.574Z,9.60
2022-09-15T00:53:12.844Z,8.63
2022-09-15T00:53:36.867Z,8.88
2022-09-15T00:54:02.937Z,9.35
2022-09-15T00:54:40.132Z,9.38
2022-09-15T00:55:17.501Z,8.95
2022-09-15T00:55:47.902Z,9.07
2022-09-15T00:56:14.615Z,9.32
2022-09-15T00:56:41.378Z,9.48
2022-09-15T00:57:09.255Z,9.05
2022-09-15T00:57:42.563Z,8.95
2022-09-15T00:58:11.904Z,9.13
2022-09-15T00:58:53.840Z,8.90
2022-09-15T00:59:20.092Z,9.75
2022-09-15T00:59:44.432Z,9.70
2022-09-15T01:00:13.101Z,9.05
2022-09-15T01:00:35.818Z,9.43
2022-09-15T01:01:03.244Z,8.93
2022-09-15T01:01:28.760Z,9.25
2022-09-15T01:01:56.942Z,9.68
2022-09-15T01:02:24.138Z,9.48
2022-09-15T01:02:47.402Z,9.57
2022-09-15T01:03:09.540Z,9.75
2022-09-15T01:03:35.192Z,9.13
2022-09-15T01:03:57.265Z,9.15
2022-09-15T01:04:19.623Z,8.85
2022-09-15T01:04:44.848Z,9.43
2022-09-15T01:05:11.019Z,9.43
2022-09-15T01:05:43.101Z,9.05
2022-09-15T01:06:11.335Z,9.00
2022-09-15T01:06:41.172Z,9.55
2022-09-15T01:07:08.295Z,9.60
2022-09-15T01:07:41.150Z,9.48
2022-09-15T01:08:17.282Z,9.10
2022-09-15T01:09:01.755Z,9.02
2022-09-15T01:09:29.812Z,8.82
2022-09-15T01:10:01.928Z,9.10
2022-09-15T01:10:38.010Z,9.35
2022-09-15T01:11:00.758Z,9.13
2022-09-15T01:11:24.933Z,9.38
2022-09-15T01:11:47.155Z,9.50
2022-09-15T01:12:09.105Z,8.95
2022-09-15T01:12:33.454Z,9.38
2022-09-15T01:13:01.557Z,8.90
2022-09-15T01:13:27.573Z,9.07
2022-09-15T01:13:50.768Z,8.93
2022-09-15T01:14:15.394Z,8.68
2022-09-15T01:14:43.530Z,8.20
2022-09-15T01:15:06.024Z,8.77
2022-09-15T01:15:51.630Z,8.88
2022-09-15T01:16:53.520Z,9.27
2022-09-15T01:17:43.287Z,9.32
2022-09-15T01:18:05.146Z,8.60
2022-09-15T01:19:15.124Z,8.50
2022-09-15T01:20:05.473Z,9.43
2022-09-15T01:21:05.276Z,8.85
2022-09-15T01:22:49.093Z,8.32
2022-09-15T01:23:35.252Z,8.13
2022-09-15T01:24:14.180Z,8.30
2022-09-15T01:24:56.113Z,8.50
2022-09-15T01:25:36.261Z,8.50
2022-09-15T01:26:16.408Z,8.52
2022-09-15T01:26:46.641Z,8.63
2022-09-15T01:27:42.190Z,8.00
2022-09-15T01:28:07.293Z,8.32
2022-09-15T01:28:56.788Z,7.95
2022-09-15T01:29:41.985Z,8.40
2022-09-15T01:30:13.830Z,8.38
2022-09-15T01:30:39.675Z,8.13
2022-09-15T01:31:16.037Z,8.00
2022-09-15T01:32:11.107Z,8.38
2022-09-15T01:33:04.264Z,8.10
2022-09-15T01:34:01.313Z,8.55
2022-09-15T01:34:24.397Z,8.20
2022-09-15T01:35:10.555Z,8.02
2022-09-15T01:35:46.913Z,8.07
2022-09-15T01:36:19.149Z,8.18
2022-09-15T01:36:55.515Z,7.78
2022-09-15T01:37:28.069Z,8.30
2022-09-15T01:38:13.782Z,8.05
2022-09-15T01:38:55.103Z,8.10
2022-09-15T01:39:34.380Z,8.10
2022-09-15T01:40:02.568Z,8.45
2022-09-15T01:40:29.882Z,8.32
2022-09-15T01:41:02.132Z,8.43
2022-09-15T01:41:30.505Z,8.25
2022-09-15T01:42:05.311Z,8.30
2022-09-15T01:42:28.108Z,8.70
2022-09-15T01:42:51.977Z,8.40
2022-09-15T01:43:23.210Z,8.23
2022-09-15T01:44:09.860Z,8.18
2022-09-15T01:44:40.614Z,8.15
2022-09-15T01:45:12.443Z,7.93
2022-09-15T01:45:36.871Z,8.40
2022-09-15T01:46:00.724Z,8.98
2022-09-15T01:46:26.309Z,8.55
2022-09-15T01:46:59.187Z,8.20
2022-09-15T01:47:22.487Z,8.55
2022-09-15T01:47:48.576Z,8.60
2022-09-15T01:48:12.199Z,9.05
2022-09-15T01:48:35.946Z,8.43
2022-09-15T01:49:00.978Z,8.73
2022-09-15T01:49:29.212Z,8.55
2022-09-15T01:49:59.426Z,8.38
2022-09-15T01:50:26.687Z,8.25
2022-09-15T01:50:56.304Z,8.50
2022-09-15T01:51:18.557Z,8.82
2022-09-15T01:51:43.830Z,8.23
2022-09-15T01:52:07.839Z,8.40
2022-09-15T01:52:33.548Z,8.70
2022-09-15T01:53:00.358Z,8.63
2022-09-15T01:53:29.097Z,8.63
2022-09-15T01:53:55.028Z,8.68
2022-09-15T01:54:22.091Z,8.43
2022-09-15T01:54:49.379Z,8.77
2022-09-15T01:55:29.675Z,8.57
2022-09-15T01:56:09.574Z,8.07
2022-09-15T01:56:34.469Z,8.63
2022-09-15T01:56:57.645Z,8.27
2022-09-15T01:57:22.430Z,8.73
2022-09-15T01:57:45.541Z,8.05
2022-09-15T01:58:10.440Z,7.82
2022-09-15T01:58:35.142Z,8.05
2022-09-15T01:58:57.532Z,8.27
2022-09-15T01:59:19.546Z,8.32
2022-09-15T01:59:41.775Z,8.38
2022-09-15T02:00:05.351Z,8.60
2022-09-15T02:00:30.863Z,8.82
2022-09-15T02:01:47.404Z,8.25
2022-09-15T02:02:14.818Z,8.35
2022-09-15T02:02:42.970Z,8.65
2022-09-15T02:03:18.723Z,8.38
2022-09-15T02:03:44.835Z,8.45
2022-09-15T02:04:31.992Z,8.52
2022-09-15T02:05:04.273Z,8.27
2022-09-15T02:05:44.641Z,8.05
2022-09-15T02:06:15.893Z,8.45
2022-09-15T02:06:53.509Z,8.75
2022-09-15T02:07:44.982Z,8.82
2022-09-15T02:08:13.120Z,8.43
2022-09-15T02:08:43.030Z,8.93
2022-09-15T02:09:13.053Z,8.75
2022-09-15T02:09:46.710Z,9.00
2022-09-15T02:10:15.354Z,8.23
2022-09-15T02:10:49.274Z,8.60
2022-09-15T02:11:30.055Z,8.77
2022-09-15T02:12:03.152Z,8.30
2022-09-15T02:12:38.476Z,8.95
2022-09-15T02:13:31.178Z,8.98
2022-09-15T02:13:56.630Z,8.57
2022-09-15T02:14:50.021Z,8.60
2022-09-15T02:15:16.792Z,8.32
2022-09-15T02:15:43.713Z,8.40
2022-09-15T02:16:19.847Z,8.23
2022-09-15T02:16:46.745Z,8.25
2022-09-15T02:17:14.590Z,8.20
2022-09-15T02:17:42.971Z,8.88
2022-09-15T02:18:08.644Z,8.57
2022-09-15T02:18:55.153Z,8.57
2022-09-15T02:19:46.867Z,8.10
2022-09-15T02:20:23.756Z,8.57
2022-09-15T02:20:50.959Z,8.73
2022-09-15T02:21:24.119Z,8.35
2022-09-15T02:22:04.391Z,8.70
2022-09-15T02:22:36.509Z,8.60
2022-09-15T02:23:09.430Z,8.57
2022-09-15T02:23:37.640Z,8.70
2022-09-15T02:24:06.681Z,8.45
2022-09-15T02:24:38.070Z,8.25
2022-09-15T02:25:08.318Z,8.20
2022-09-15T02:25:38.176Z,8.32
2022-09-15T02:26:07.294Z,8.18
2022-09-15T02:26:32.021Z,8.40
2022-09-15T02:26:55.632Z,8.88
2022-09-15T02:27:29.353Z,8.32
2022-09-15T02:27:56.094Z,8.15
2022-09-15T02:28:24.269Z,8.50
2022-09-15T02:28:49.147Z,8.50
2022-09-15T02:29:15.175Z,7.97
2022-09-15T02:29:38.254Z,8.35
2022-09-15T02:30:06.466Z,8.52
2022-09-15T02:30:30.892Z,8.20
2022-09-15T02:30:59.291Z,7.97
2022-09-15T02:31:24.508Z,8.20
2022-09-15T02:31:48.860Z,8.23
2022-09-15T02:32:16.465Z,8.73
2022-09-15T02:32:45.516Z,8.30
2022-09-15T02:33:14.648Z,8.40
2022-09-15T02:33:44.273Z,8.75
2022-09-15T02:34:15.938Z,8.82
2022-09-15T02:34:41.999Z,8.73
2022-09-15T02:35:17.024Z,8.55
2022-09-15T02:35:41.391Z,8.45
2022-09-15T02:36:07.045Z,8.82
2022-09-15T02:36:32.595Z,8.55
2022-09-15T02:36:56.344Z,8.38
2022-09-15T02:37:21.232Z,8.55
2022-09-15T02:37:46.804Z,8.60
2022-09-15T02:38:12.474Z,8.77
2022-09-15T02:38:44.075Z,8.32
2022-09-15T02:39:10.623Z,8.52
2022-09-15T02:39:41.504Z,8.65
2022-09-15T02:40:04.761Z,8.55
2022-09-15T02:40:29.166Z,8.48
2022-09-15T02:40:51.303Z,8.90
2022-09-15T02:41:14.516Z,8.82
2022-09-15T02:41:40.344Z,8.52
2022-09-15T02:42:06.821Z,8.98
2022-09-15T02:42:32.649Z,8.27
2022-09-15T02:42:58.536Z,8.55
2022-09-15T02:43:20.638Z,8.50
2022-09-15T02:43:49.383Z,8.60
2022-09-15T02:44:15.177Z,8.27
2022-09-15T02:44:39.034Z,8.45
2022-09-15T02:45:02.204Z,8.27
2022-09-15T02:45:25.788Z,8.57
2022-09-15T02:45:47.926Z,8.60
2022-09-15T02:46:10.042Z,8.90
2022-09-15T02:46:31.906Z,8.18
2022-09-15T02:46:53.770Z,8.23
2022-09-15T02:47:15.652Z,8.90
2022-09-15T02:47:37.675Z,8.20
2022-09-15T02:47:59.985Z,7.97
2022-09-15T02:48:22.306Z,7.60
2022-09-15T02:48:44.393Z,7.95
2022-09-15T02:49:06.265Z,8.63
2022-09-15T02:49:29.817Z,8.63
2022-09-15T02:49:54.512Z,8.15
2022-09-15T02:50:20.519Z,8.40
2022-09-15T02:50:42.463Z,7.90
2022-09-15T02:51:04.305Z,7.90
2022-09-15T02:51:27.153Z,8.35
2022-09-15T02:51:51.794Z,8.60
2022-09-15T02:52:14.116Z,8.88
2022-09-15T02:52:36.009Z,8.90
2022-09-15T02:53:00.297Z,8.23
2022-09-15T02:53:22.560Z,8.50
2022-09-15T02:53:46.632Z,8.65
2022-09-15T02:54:08.884Z,8.60
2022-09-15T02:54:32.950Z,8.32
2022-09-15T02:54:56.222Z,7.90
2022-09-15T02:55:18.182Z,8.15
2022-09-15T02:55:43.300Z,8.30
2022-09-15T02:56:06.662Z,8.65
2022-09-15T02:56:28.772Z,8.85
2022-09-15T02:56:51.035Z,8.85
2022-09-15T02:57:15.544Z,8.23
2022-09-15T02:57:37.823Z,8.30
2022-09-15T02:58:01.098Z,8.10
2022-09-15T02:58:22.895Z,8.65
2022-09-15T02:58:44.872Z,8.48
2022-09-15T02:59:07.814Z,8.43
2022-09-15T02:59:49.745Z,8.82
2022-09-15T03:00:18.592Z,8.50
2022-09-15T03:00:40.737Z,8.75
2022-09-15T03:01:07.615Z,8.75
2022-09-15T03:01:35.150Z,9.30
2022-09-15T03:01:59.041Z,8.90
2022-09-15T03:02:20.982Z,8.52
2022-09-15T03:02:45.625Z,8.40
2022-09-15T03:03:07.453Z,8.57
2022-09-15T03:03:29.423Z,8.52
2022-09-15T03:03:53.397Z,8.60
2022-09-15T03:04:20.460Z,9.18
2022-09-15T03:04:42.533Z,8.68
2022-09-15T03:05:04.863Z,8.13
2022-09-15T03:05:29.198Z,8.38
2022-09-15T03:05:51.807Z,9.00
2022-09-15T03:06:19.681Z,9.38
2022-09-15T03:06:41.497Z,8.85
2022-09-15T03:07:06.434Z,9.00
2022-09-15T03:07:28.631Z,8.82
2022-09-15T03:07:51.721Z,8.65
2022-09-15T03:08:14.144Z,8.75
2022-09-15T03:08:36.040Z,9.07
2022-09-15T03:09:05.295Z,8.80
2022-09-15T03:09:27.072Z,8.50
2022-09-15T03:09:51.852Z,8.85
2022-09-15T03:10:14.379Z,9.02
2022-09-15T03:10:40.383Z,8.90
2022-09-15T03:11:02.225Z,9.13
2022-09-15T03:11:26.884Z,9.25
2022-09-15T03:11:51.149Z,9.10
2022-09-15T03:12:14.173Z,8.65
2022-09-15T03:12:40.569Z,8.93
2022-09-15T03:13:02.470Z,8.93
2022-09-15T03:13:24.343Z,8.68
2022-09-15T03:13:47.103Z,8.60
2022-09-15T03:14:09.585Z,8.60
2022-09-15T03:14:32.709Z,8.35
2022-09-15T03:14:54.541Z,9.00
2022-09-15T03:15:18.866Z,8.80
2022-09-15T03:15:41.980Z,8.80
2022-09-15T03:16:13.800Z,9.05
2022-09-15T03:16:36.057Z,8.60
2022-09-15T03:16:58.533Z,8.90
2022-09-15T03:17:20.428Z,9.07
2022-09-15T03:17:43.619Z,9.35
2022-09-15T03:18:07.934Z,9.02
2022-09-15T03:18:32.547Z,9.07
2022-09-15T03:18:56.019Z,9.00
2022-09-15T03:19:23.161Z,8.98
2022-09-15T03:19:45.435Z,8.60
2022-09-15T03:20:09.285Z,9.27
2022-09-15T03:20:33.449Z,9.35
2022-09-15T03:20:59.353Z,8.73
2022-09-15T03:21:21.863Z,8.70
2022-09-15T03:21:44.647Z,8.77
2022-09-15T03:22:07.006Z,8.80
2022-09-15T03:22:29.085Z,8.55
2022-09-15T03:22:51.177Z,8.98
2022-09-15T03:23:15.136Z,8.98
2022-09-15T03:23:37.301Z,8.85
2022-09-15T03:24:00.572Z,9.25
2022-09-15T03:24:26.103Z,9.57
2022-09-15T03:24:48.096Z,8.98
2022-09-15T03:25:11.293Z,8.82
2022-09-15T03:25:33.271Z,8.95
2022-09-15T03:25:56.005Z,9.07
2022-09-15T03:26:21.084Z,9.65
2022-09-15T03:26:43.106Z,8.95
2022-09-15T03:27:05.750Z,8.90
2022-09-15T03:27:27.812Z,9.47
2022-09-15T03:27:49.621Z,9.10
2022-09-15T03:28:11.547Z,9.02
2022-09-15T03:28:34.391Z,9.23
2022-09-15T03:28:58.649Z,9.55
2022-09-15T03:29:20.473Z,9.68
2022-09-15T03:29:45.611Z,9.32
2022-09-15T03:30:08.386Z,9.13
2022-09-15T03:30:30.251Z,9.15
2022-09-15T03:30:53.550Z,9.60
2022-09-15T03:31:18.026Z,9.70
2022-09-15T03:31:39.968Z,9.63
2022-09-15T03:32:02.222Z,9.88
2022-09-15T03:32:24.052Z,9.25
2022-09-15T03:32:46.050Z,8.90
2022-09-15T03:33:09.493Z,9.00
2022-09-15T03:33:34.459Z,9.88
2022-09-15T03:33:56.491Z,10.00
2022-09-15T03:34:19.439Z,9.40
2022-09-15T03:34:41.417Z,9.15
2022-09-15T03:35:07.018Z,9.20
2022-09-15T03:35:29.413Z,9.77
2022-09-15T03:35:53.083Z,9.60
2022-09-15T03:36:17.708Z,9.90
2022-09-15T03:36:43.565Z,9.65
2022-09-15T03:37:05.680Z,9.73
2022-09-15T03:37:27.906Z,9.50
2022-09-15T03:37:52.210Z,9.48
2022-09-15T03:38:15.053Z,9.48
2022-09-15T03:38:37.199Z,9.32
2022-09-15T03:38:59.601Z,10.05
2022-09-15T03:39:23.459Z,9.30
2022-09-15T03:39:45.441Z,9.52
2022-09-15T03:40:08.372Z,9.63
2022-09-15T03:40:33.966Z,8.90
2022-09-15T03:41:08.044Z,8.95
2022-09-15T03:41:30.113Z,8.90
2022-09-15T03:41:56.193Z,9.32
2022-09-15T03:42:21.545Z,9.55
2022-09-15T03:42:44.108Z,9.48
2022-09-15T03:43:06.062Z,9.73
2022-09-15T03:43:29.152Z,9.52
2022-09-15T03:43:56.540Z,9.50
2022-09-15T03:44:18.487Z,9.18
2022-09-15T03:44:41.492Z,9.32
2022-09-15T03:45:03.849Z,9.70
2022-09-15T03:45:30.642Z,9.40
2022-09-15T03:45:52.932Z,9.30
2022-09-15T03:46:15.338Z,9.57
2022-09-15T03:46:43.805Z,9.63
2022-09-15T03:47:08.868Z,9.27
2022-09-15T03:47:30.677Z,9.32
2022-09-15T03:47:52.835Z,9.43
2022-09-15T03:48:14.944Z,9.65
2022-09-15T03:48:37.883Z,9.75
2022-09-15T03:49:05.220Z,9.70
2022-09-15T03:49:27.219Z,9.48
2022-09-15T03:49:49.053Z,9.27
2022-09-15T03:50:13.173Z,9.60
2022-09-15T03:50:37.535Z,10.13
2022-09-15T03:50:59.400Z,10.85
2022-09-15T03:51:22.313Z,10.35
2022-09-15T03:51:44.657Z,10.55
2022-09-15T03:52:06.684Z,9.52
2022-09-15T03:52:32.068Z,9.32
2022-09-15T03:52:58.186Z,10.23
2022-09-15T03:53:20.913Z,10.18
2022-09-15T03:53:43.937Z,9.48
2022-09-15T03:54:08.665Z,9.95
2022-09-15T03:54:30.578Z,10.35
2022-09-15T03:54:52.433Z,10.50
2022-09-15T03:55:14.718Z,10.00
2022-09-15T03:55:39.046Z,9.87
2022-09-15T03:56:25.148Z,9.70
2022-09-15T03:56:52.570Z,9.63
2022-09-15T03:57:14.415Z,9.70
2022-09-15T03:57:36.696Z,9.25
2022-09-15T03:58:02.596Z,10.02
2022-09-15T03:58:27.822Z,9.95
2022-09-15T04:00:03.179Z,10.35
2022-09-15T04:00:34.879Z,10.32
2022-09-15T04:01:47.283Z,9.93
2022-09-15T04:02:10.408Z,10.20
2022-09-15T04:02:34.179Z,10.15
2022-09-15T04:02:56.040Z,10.40
2022-09-15T04:03:17.968Z,10.13
2022-09-15T04:03:45.199Z,10.00
2022-09-15T04:04:09.675Z,10.43
2022-09-15T04:04:35.092Z,10.15
2022-09-15T04:05:02.472Z,10.70
2022-09-15T04:05:24.234Z,10.88
2022-09-15T04:05:46.208Z,10.60
2022-09-15T04:06:14.892Z,9.60
2022-09-15T04:06:37.426Z,10.10
2022-09-15T04:06:59.597Z,10.43
2022-09-15T04:07:24.157Z,10.10
2022-09-15T04:07:46.801Z,10.00
2022-09-15T04:08:12.396Z,9.73
2022-09-15T04:08:34.417Z,9.93
2022-09-15T04:08:59.314Z,9.90
2022-09-15T04:09:21.880Z,9.63
2022-09-15T04:09:43.970Z,9.97
2022-09-15T04:10:08.692Z,10.38
2022-09-15T04:10:31.582Z,10.45
2022-09-15T04:10:55.672Z,10.00
2022-09-15T04:11:19.652Z,10.60
2022-09-15T04:11:41.612Z,9.95
2022-09-15T04:12:04.227Z,9.73
2022-09-15T04:12:26.013Z,9.73
2022-09-15T04:12:48.754Z,9.90
2022-09-15T04:13:10.584Z,9.57
2022-09-15T04:13:32.695Z,10.15
2022-09-15T04:13:54.780Z,10.52
2022-09-15T04:14:16.867Z,10.25
2022-09-15T04:14:38.934Z,10.15
2022-09-15T04:15:01.432Z,9.85
2022-09-15T04:15:23.525Z,10.50
2022-09-15T04:15:45.363Z,10.35
2022-09-15T04:16:10.549Z,10.05
2022-09-15T04:16:33.912Z,10.30
2022-09-15T04:17:00.696Z,10.35
2022-09-15T04:17:22.781Z,10.52
2022-09-15T04:17:47.779Z,10.20
2022-09-15T04:18:12.928Z,10.40
2022-09-15T04:18:35.474Z,10.88
2022-09-15T04:18:58.054Z,10.38
2022-09-15T04:19:20.112Z,9.90
2022-09-15T04:19:42.824Z,10.43
2022-09-15T04:20:05.537Z,10.45
2022-09-15T04:20:27.638Z,9.98
2022-09-15T04:20:50.606Z,10.68
2022-09-15T04:21:21.176Z,10.50
2022-09-15T04:21:45.412Z,11.07
2022-09-15T04:22:08.065Z,11.00
2022-09-15T04:22:32.983Z,10.57
2022-09-15T04:22:55.168Z,10.27
2022-09-15T04:23:26.456Z,11.32
2022-09-15T04:23:52.008Z,10.43
2022-09-15T04:24:17.287Z,10.80
2022-09-15T04:24:39.598Z,11.02
2022-09-15T04:25:03.895Z,10.80
2022-09-15T04:25:37.428Z,10.93
2022-09-15T04:26:06.312Z,10.32
2022-09-15T04:26:33.548Z,10.88
2022-09-15T04:26:55.789Z,10.73
2022-09-15T04:27:17.680Z,10.98
2022-09-15T04:27:39.891Z,11.40
2022-09-15T04:28:02.145Z,10.63
2022-09-15T04:28:26.176Z,10.90
2022-09-15T04:28:48.211Z,10.70
2022-09-15T04:29:15.990Z,11.20
2022-09-15T04:29:38.105Z,10.80
2022-09-15T04:30:03.610Z,10.90
2022-09-15T04:30:26.001Z,11.30
2022-09-15T04:30:48.008Z,10.70
2022-09-15T04:31:16.253Z,10.77
2022-09-15T04:31:40.586Z,11.25
2022-09-15T04:32:03.416Z,10.60
2022-09-15T04:32:25.373Z,10.57
2022-09-15T04:32:49.240Z,10.75
2022-09-15T04:33:13.776Z,10.48
2022-09-15T04:33:38.514Z,10.35
2022-09-15T04:34:00.692Z,10.90
2022-09-15T04:34:27.145Z,11.10
2022-09-15T04:34:50.261Z,11.25
2022-09-15T04:35:12.542Z,10.93
2022-09-15T04:35:34.376Z,10.93
2022-09-15T04:36:07.200Z,10.85
2022-09-15T04:36:30.533Z,10.85
2022-09-15T04:36:52.856Z,10.65
2022-09-15T04:37:17.711Z,11.52
2022-09-15T04:37:39.816Z,11.05
2022-09-15T04:38:03.790Z,10.77
2022-09-15T04:38:25.674Z,10.80
2022-09-15T04:38:48.158Z,10.80
2022-09-15T04:39:10.042Z,9.70
2022-09-15T04:39:32.007Z,10.38
2022-09-15T04:39:54.080Z,11.23
2022-09-15T04:40:16.079Z,11.02
2022-09-15T04:40:41.066Z,10.48
2022-09-15T04:41:04.276Z,10.98
2022-09-15T04:41:30.527Z,10.75
2022-09-15T04:41:52.770Z,11.63
2022-09-15T04:42:15.780Z,10.73
2022-09-15T04:42:37.572Z,10.80
2022-09-15T04:43:04.605Z,10.52
2022-09-15T04:43:29.988Z,11.18
2022-09-15T04:43:52.286Z,11.23
2022-09-15T04:44:17.394Z,10.52
2022-09-15T04:44:45.112Z,11.15
2022-09-15T04:45:07.599Z,10.48
2022-09-15T04:45:30.433Z,10.73
2022-09-15T04:45:52.397Z,11.10
2022-09-15T04:46:15.598Z,11.68
2022-09-15T04:46:38.579Z,10.95
2022-09-15T04:47:00.777Z,10.50
2022-09-15T04:47:25.239Z,9.93
2022-09-15T04:47:51.714Z,10.80
2022-09-15T04:48:13.797Z,11.75
2022-09-15T04:48:38.598Z,11.73
2022-09-15T04:49:02.648Z,12.00
2022-09-15T04:49:29.818Z,11.70
2022-09-15T04:49:56.228Z,10.73
2022-09-15T04:50:21.060Z,11.20
2022-09-15T04:50:43.084Z,10.85
2022-09-15T04:51:08.655Z,11.30
2022-09-15T04:51:31.089Z,10.95
2022-09-15T04:51:55.960Z,10.90
2022-09-15T04:52:17.893Z,10.80
2022-09-15T04:52:40.178Z,11.38
2022-09-15T04:53:02.934Z,11.30
2022-09-15T04:53:24.749Z,11.18
2022-09-15T04:53:47.793Z,11.65
2022-09-15T04:54:09.777Z,10.98
2022-09-15T04:54:35.807Z,10.60
2022-09-15T04:54:58.756Z,11.00
2022-09-15T04:55:20.975Z,10.75
2022-09-15T04:55:43.602Z,10.52
2022-09-15T04:56:17.508Z,10.70
2022-09-15T04:56:39.953Z,10.75
2022-09-15T04:57:08.674Z,10.10
2022-09-15T04:57:33.118Z,10.43
2022-09-15T04:57:55.494Z,10.50
2022-09-15T04:58:17.746Z,10.68
2022-09-15T04:58:44.921Z,10.70
2022-09-15T04:59:16.837Z,10.70
2022-09-15T04:59:40.861Z,10.27
2022-09-15T05:00:09.591Z,10.30
2022-09-15T05:00:35.167Z,10.88
2022-09-15T05:00:59.269Z,11.20
2022-09-15T05:01:26.346Z,10.80
2022-09-15T05:01:49.084Z,10.25
2022-09-15T05:02:13.682Z,11.13
2022-09-15T05:02:35.834Z,10.35
2022-09-15T05:03:01.610Z,10.40
2022-09-15T05:03:23.598Z,11.15
2022-09-15T05:03:46.685Z,10.88
2022-09-15T05:04:08.902Z,10.13
2022-09-15T05:04:31.065Z,10.82
2022-09-15T05:04:53.012Z,10.23
2022-09-15T05:05:15.303Z,11.18
2022-09-15T05:05:37.567Z,11.52
2022-09-15T05:05:59.463Z,10.32
2022-09-15T05:06:25.435Z,10.75
2022-09-15T05:06:47.418Z,11.25
2022-09-15T05:07:11.559Z,10.93
2022-09-15T05:07:36.532Z,10.90
2022-09-15T05:08:03.981Z,11.18
2022-09-15T05:08:30.567Z,11.23
2022-09-15T05:08:57.153Z,11.77
2022-09-15T05:09:19.363Z,10.98
2022-09-15T05:09:41.711Z,11.10
2022-09-15T05:10:03.899Z,11.18
2022-09-15T05:10:25.994Z,11.18
2022-09-15T05:10:48.253Z,11.05
2022-09-15T05:11:16.587Z,10.68
2022-09-15T05:11:42.598Z,10.32
2022-09-15T05:12:08.142Z,10.48
2022-09-15T05:12:29.973Z,10.15
2022-09-15T05:12:52.110Z,11.05
2022-09-15T05:13:14.267Z,10.57
2022-09-15T05:13:42.506Z,10.35
2022-09-15T05:14:06.768Z,10.85
2022-09-15T05:14:29.116Z,11.00
2022-09-15T05:14:57.628Z,10.63
2022-09-15T05:15:20.157Z,11.07
2022-09-15T05:15:43.949Z,10.52
2022-09-15T05:16:22.377Z,10.90
2022-09-15T05:16:44.387Z,10.40
2022-09-15T05:17:08.478Z,10.20
2022-09-15T05:17:36.564Z,10.50
2022-09-15T05:17:58.849Z,11.02
2022-09-15T05:18:20.757Z,10.85
2022-09-15T05:18:46.840Z,10.70
2022-09-15T05:19:10.459Z,10.30
2022-09-15T05:19:32.492Z,10.15
2022-09-15T05:19:55.257Z,10.50
2022-09-15T05:20:19.639Z,10.55
2022-09-15T05:20:42.877Z,10.80
2022-09-15T05:21:09.940Z,10.52
2022-09-15T05:21:35.402Z,9.60
2022-09-15T05:21:57.645Z,10.05
2022-09-15T05:22:21.167Z,10.00
2022-09-15T05:22:44.332Z,9.32
2022-09-15T05:23:11.147Z,9.10
2022-09-15T05:23:34.600Z,9.77
2022-09-15T05:23:56.592Z,9.75
2022-09-15T05:24:18.483Z,9.90
2022-09-15T05:24:48.076Z,10.02
2022-09-15T05:25:13.154Z,10.10
2022-09-15T05:25:35.365Z,9.65
2022-09-15T05:26:02.439Z,9.40
2022-09-15T05:26:34.036Z,9.30
2022-09-15T05:26:59.084Z,9.52
2022-09-15T05:27:21.271Z,10.05
2022-09-15T05:27:44.432Z,10.18
2022-09-15T05:28:08.695Z,9.90
2022-09-15T05:28:33.825Z,9.60
2022-09-15T05:29:24.528Z,9.38
2022-09-15T05:30:00.327Z,9.80
2022-09-15T05:30:42.491Z,9.45
2022-09-15T05:31:19.514Z,9.57
2022-09-15T05:31:41.639Z,9.32
2022-09-15T05:32:03.504Z,9.98
2022-09-15T05:32:25.913Z,9.65
2022-09-15T05:32:52.717Z,9.70
2022-09-15T05:33:14.591Z,9.82
2022-09-15T05:33:36.541Z,9.27
2022-09-15T05:34:00.862Z,9.48
2022-09-15T05:34:22.993Z,9.90
2022-09-15T05:34:47.064Z,9.90
2022-09-15T05:35:09.921Z,10.47
2022-09-15T05:35:31.950Z,9.52
2022-09-15T05:35:59.688Z,9.93
2022-09-15T05:36:25.975Z,9.35
2022-09-15T05:36:47.910Z,9.55
2022-09-15T05:37:11.561Z,9.63
2022-09-15T05:37:38.991Z,9.75
2022-09-15T05:38:00.989Z,9.27
2022-09-15T05:38:28.382Z,9.90
2022-09-15T05:38:50.743Z,9.95
2022-09-15T05:39:14.053Z,9.63
2022-09-15T05:39:36.361Z,9.45
2022-09-15T05:40:01.251Z,9.02
2022-09-15T05:40:25.117Z,8.48
2022-09-15T05:40:48.037Z,9.27
2022-09-15T05:41:18.721Z,9.60
2022-09-15T05:41:41.476Z,9.25
2022-09-15T05:42:03.818Z,9.30
2022-09-15T05:42:33.181Z,9.07
2022-09-15T05:42:55.539Z,9.32
2022-09-15T05:43:18.259Z,9.55
2022-09-15T05:43:49.171Z,9.20
2022-09-15T05:44:12.972Z,9.50
2022-09-15T05:44:35.429Z,9.27
2022-09-15T05:44:57.529Z,8.77
2022-09-15T05:45:19.400Z,8.82
2022-09-15T05:45:44.838Z,8.85
2022-09-15T05:46:12.706Z,8.98
2022-09-15T05:46:34.713Z,8.85
2022-09-15T05:46:56.697Z,8.52
2022-09-15T05:47:21.096Z,8.70
2022-09-15T05:47:46.522Z,8.85
2022-09-15T05:48:12.421Z,9.10
2022-09-15T05:48:35.332Z,8.80
2022-09-15T05:48:59.226Z,8.75
2022-09-15T05:49:21.412Z,8.25